Time;durP1;ratioP1;P1;durP2;ratioP2;P2;SDS_P1;SDS_P2;PMS_P1;PMS_P2;Temp;Humidity;BMP_temperature;BMP_pressure;BME280_temperature;BME280_humidity;BME280_pressure;Samples;Min_cycle;Max_cycle;Signal;HPM_P1;HPM_P2
2024/01/25 07:35:04;;;;;;;0.50;0.50;;;7.10;99.90;9.20;102581.00;;;;6335821;22;20210;-81
2024/01/25 07:37:30;;;;;;;0.37;0.37;;;7.10;99.90;9.40;102586.00;;;;6272691;22;1339065;-76
2024/01/25 07:39:56;;;;;;;0.30;0.30;;;7.10;99.90;9.20;102528.00;;;;6307792;22;20514;-78
2024/01/25 07:42:23;;;;;;;1.13;1.10;;;7.10;99.90;9.80;102595.00;;;;6307538;22;20529;-81
2024/01/25 07:44:49;;;;;;;0.40;0.40;;;7.20;99.90;9.40;102598.00;;;;6307556;22;20143;-82
2024/01/25 07:47:18;;;;;;;0.30;0.30;;;7.20;99.90;9.50;102611.00;;;;6307195;22;20659;-81
2024/01/25 07:49:44;;;;;;;1.90;1.80;;;7.20;99.90;9.50;102603.00;;;;6307544;22;20148;-81
2024/01/25 07:52:10;;;;;;;1.53;0.70;;;7.30;99.90;9.50;102566.00;;;;6307663;22;20237;-82
2024/01/25 07:54:36;;;;;;;0.40;0.40;;;7.30;99.90;9.40;102623.00;;;;6309025;22;20140;-82
2024/01/25 07:57:02;;;;;;;0.30;0.30;;;7.20;99.90;9.50;102578.00;;;;6308367;22;20141;-81
2024/01/25 07:59:28;;;;;;;0.30;0.30;;;7.20;99.90;9.10;102597.00;;;;6281442;22;20153;-81
2024/01/25 08:01:54;;;;;;;2.43;2.30;;;7.10;99.90;8.60;102594.00;;;;6309046;22;20175;-81
2024/01/25 08:04:20;;;;;;;0.30;0.30;;;6.90;99.90;9.10;102594.00;;;;6306893;22;20152;-81
2024/01/25 08:06:45;;;;;;;0.30;0.30;;;6.90;99.90;9.50;102595.00;;;;6307357;22;20144;-82
2024/01/25 08:09:11;;;;;;;0.93;0.93;;;7.20;99.90;8.80;102569.00;;;;6306977;22;20145;-81
2024/01/25 08:11:37;;;;;;;0.77;0.77;;;7.10;99.90;9.10;102593.00;;;;6307907;22;20152;-82
2024/01/25 08:14:03;;;;;;;0.40;0.40;;;7.10;99.90;9.50;102600.00;;;;6308785;22;20443;-81
2024/01/25 08:16:29;;;;;;;0.30;0.30;;;7.20;99.90;9.40;102525.00;;;;6306788;22;20141;-82
2024/01/25 08:18:55;;;;;;;0.30;0.30;;;7.30;99.90;9.40;102587.00;;;;6307088;22;20221;-81
2024/01/25 08:21:21;;;;;;;0.30;0.30;;;7.20;99.90;9.30;102587.00;;;;6307001;22;20145;-82
2024/01/25 08:23:51;;;;;;;0.73;0.73;;;7.30;99.90;9.40;102603.00;;;;6281349;22;20183;-82
2024/01/25 08:26:17;;;;;;;0.30;0.30;;;7.30;99.90;9.60;102598.00;;;;6307626;22;20170;-83
2024/01/25 08:28:44;;;;;;;0.30;0.30;;;7.30;99.90;9.90;102604.00;;;;6308377;22;20144;-83
2024/01/25 08:31:12;;;;;;;0.50;0.50;;;7.50;99.90;10.10;102613.00;;;;6308833;22;20208;-83
2024/01/25 08:33:43;;;;;;;0.30;0.30;;;7.60;99.90;10.10;102594.00;;;;6306677;22;20603;-83
2024/01/25 08:36:10;;;;;;;0.90;0.87;;;7.60;99.90;10.10;102587.00;;;;6281753;22;20168;-83
2024/01/25 08:38:38;;;;;;;0.63;0.40;;;7.80;99.90;10.50;102591.00;;;;6281243;22;20165;-83
2024/01/25 08:41:04;;;;;;;0.37;0.37;;;7.90;99.90;9.60;102575.00;;;;6308603;22;20142;-83
2024/01/25 08:43:30;;;;;;;0.50;0.50;;;7.70;99.90;9.50;102565.00;;;;6308585;22;20172;-81
2024/01/25 08:45:56;;;;;;;0.30;0.30;;;7.50;99.90;9.00;102599.00;;;;6307029;22;20156;-77
2024/01/25 08:48:22;;;;;;;2.30;2.10;;;7.40;99.90;8.80;102527.00;;;;6281020;22;20194;-75
2024/01/25 08:50:53;;;;;;;2.30;2.10;;;7.20;99.90;9.20;102596.00;;;;6307368;22;20144;-76
2024/01/25 08:53:22;;;;;;;1.53;1.53;;;7.20;99.90;9.30;102603.00;;;;6307049;22;20144;-76
2024/01/25 08:55:48;;;;;;;0.30;0.30;;;7.30;99.90;9.40;102600.00;;;;6307152;22;20147;-77
2024/01/25 08:58:14;;;;;;;3.07;2.87;;;7.30;99.90;9.00;102596.00;;;;6281277;22;20486;-77
2024/01/25 09:00:40;;;;;;;3.80;3.50;;;7.30;99.90;9.50;102589.00;;;;6308089;22;20137;-77
2024/01/25 09:03:06;;;;;;;0.30;0.30;;;7.30;99.90;8.90;102603.00;;;;6308253;22;20519;-77
2024/01/25 09:05:34;;;;;;;1.80;1.67;;;7.20;99.90;9.20;102586.00;;;;6308107;22;20152;-78
2024/01/25 09:08:00;;;;;;;0.30;0.30;;;7.20;99.90;9.00;102578.00;;;;6281785;22;20159;-76
2024/01/25 09:10:27;;;;;;;0.87;0.87;;;7.10;99.90;9.30;102597.00;;;;6307051;22;20158;-76
2024/01/25 09:12:53;;;;;;;1.07;1.07;;;7.20;99.90;9.50;102592.00;;;;6281144;22;20177;-76
2024/01/25 09:15:21;;;;;;;1.00;1.00;;;7.30;99.90;9.50;102593.00;;;;6307955;22;20140;-76
2024/01/25 09:17:53;;;;;;;0.37;0.37;;;7.40;99.90;9.20;102592.00;;;;6305386;22;20472;-77
2024/01/25 09:20:19;;;;;;;2.27;1.93;;;7.30;99.90;8.90;102575.00;;;;6306913;22;20568;-76
2024/01/25 09:22:45;;;;;;;1.27;1.27;;;7.20;99.90;9.30;102583.00;;;;6307479;22;20165;-76
2024/01/25 09:25:12;;;;;;;0.40;0.40;;;7.20;99.90;9.00;102531.00;;;;6306529;22;20187;-76
2024/01/25 09:27:46;;;;;;;0.63;0.63;;;7.10;99.90;9.20;102575.00;;;;6280880;22;20468;-76
2024/01/25 09:30:13;;;;;;;1.70;1.27;;;7.20;99.90;9.30;102582.00;;;;6305652;22;20438;-77
2024/01/25 09:32:41;;;;;;;3.30;1.83;;;7.20;99.90;9.40;102600.00;;;;6280382;22;20156;-77
2024/01/25 09:35:08;;;;;;;0.70;0.70;;;7.40;99.90;9.50;102586.00;;;;6280105;22;20497;-76
2024/01/25 09:37:34;;;;;;;0.30;0.30;;;7.40;99.90;9.40;102584.00;;;;6306561;22;20173;-75
2024/01/25 09:40:08;;;;;;;0.83;0.83;;;7.40;99.90;9.60;102580.00;;;;6306608;22;20240;-76
2024/01/25 09:42:37;;;;;;;0.97;0.97;;;7.40;99.90;9.40;102549.00;;;;6306560;22;20167;-76
2024/01/25 09:45:12;;;;;;;0.37;0.37;;;7.40;99.90;9.60;102531.00;;;;6307722;22;20180;-76
2024/01/25 09:47:38;;;;;;;1.37;1.37;;;7.50;99.90;10.20;102572.00;;;;6281259;22;20164;-76
2024/01/25 09:50:05;;;;;;;1.47;1.43;;;7.70;99.90;10.20;102580.00;;;;6280469;22;20161;-76
2024/01/25 09:52:32;;;;;;;0.93;0.93;;;7.70;99.90;10.00;102580.00;;;;6280798;22;20168;-76
2024/01/25 09:54:58;;;;;;;0.40;0.40;;;7.80;99.90;10.20;102567.00;;;;6280678;22;20575;-76
2024/01/25 09:57:27;;;;;;;1.53;1.53;;;7.90;99.90;10.00;102568.00;;;;6306826;22;20145;-77
2024/01/25 09:59:57;;;;;;;1.33;1.23;;;7.90;99.90;9.80;102561.00;;;;6280459;22;20616;-76
2024/01/25 10:02:23;;;;;;;0.70;0.60;;;7.90;99.90;9.60;102570.00;;;;6280863;22;20268;-76
2024/01/25 10:04:53;;;;;;;1.13;1.07;;;7.70;99.90;10.10;102572.00;;;;6305862;22;20209;-77
2024/01/25 10:07:43;;;;;;;0.73;0.73;;;7.80;99.90;10.00;102566.00;;;;6306120;22;20163;-76
2024/01/25 10:10:10;;;;;;;0.53;0.53;;;7.90;99.90;10.20;102569.00;;;;6306087;22;20160;-77
2024/01/25 10:12:42;;;;;;;2.77;1.93;;;8.00;99.90;9.20;102543.00;;;;6306307;22;20145;-76
2024/01/25 10:15:10;;;;;;;0.50;0.50;;;7.70;99.90;9.90;102558.00;;;;6280315;22;20165;-76
2024/01/25 10:17:36;;;;;;;0.50;0.50;;;7.80;99.90;9.80;102556.00;;;;6278805;22;20209;-77
2024/01/25 10:20:10;;;;;;;0.93;0.93;;;7.80;99.90;9.60;102561.00;;;;6306075;22;20161;-76
2024/01/25 10:33:47;;;;;;;0.20;0.20;;;7.20;99.90;9.10;102614.00;;;;5131577;27;20256;-77
2024/01/25 10:36:18;;;;;;;1.07;1.07;;;7.40;99.90;9.90;102554.00;;;;5082457;28;20176;-77
2024/01/25 10:38:50;;;;;;;2.80;1.80;;;7.70;99.90;9.20;102581.00;;;;5092835;28;20589;-77
2024/01/25 10:41:17;;;;;;;0.60;0.60;;;7.60;99.90;9.50;102589.00;;;;5092616;28;20698;-76
2024/01/25 10:43:43;;;;;;;1.30;1.20;;;7.60;99.90;9.40;102591.00;;;;5092738;28;20177;-77
2024/01/25 10:46:12;;;;;;;2.00;0.60;;;7.60;99.90;9.20;102569.00;;;;5092884;28;20174;-77
2024/01/25 10:48:39;;;;;;;1.13;0.93;;;7.60;99.90;9.20;102562.00;;;;5092963;28;20189;-77
2024/01/25 10:51:06;;;;;;;0.80;0.80;;;7.60;99.90;9.70;102531.00;;;;5075863;28;20513;-77
2024/01/25 10:53:35;;;;;;;0.60;0.57;;;7.80;99.90;10.10;102567.00;;;;5082968;28;20188;-77
2024/01/25 10:56:02;;;;;;;1.50;0.93;;;8.00;99.90;10.40;102554.00;;;;5106743;28;20569;-77
2024/01/25 10:58:35;;;;;;;0.37;0.37;;;8.10;99.90;10.80;102552.00;;;;5092731;28;20169;-77
2024/01/25 11:01:03;;;;;;;0.50;0.50;;;8.30;99.90;10.50;102551.00;;;;5075340;28;20190;-77
2024/01/25 11:03:33;;;;;;;0.80;0.80;;;8.30;99.90;10.50;102525.00;;;;5092964;28;20180;-77
2024/01/25 11:06:10;;;;;;;0.60;0.60;;;8.40;99.90;10.40;102523.00;;;;5092737;28;20623;-77
2024/01/25 11:08:40;;;;;;;1.63;1.43;;;8.40;99.90;10.00;102531.00;;;;5092535;28;20545;-77
2024/01/25 11:11:10;;;;;;;4.00;1.50;;;8.40;99.90;9.90;102553.00;;;;5090157;28;20188;-77
2024/01/25 11:13:40;;;;;;;0.30;0.30;;;8.20;99.90;10.20;102523.00;;;;5076905;28;20187;-77
2024/01/25 11:16:35;;;;;;;0.90;0.70;;;8.30;99.90;10.30;102503.00;;;;5074782;28;20224;-77
2024/01/25 11:19:07;;;;;;;0.90;0.90;;;8.50;99.90;10.20;102520.00;;;;5080541;28;20270;-76
2024/01/25 11:21:47;;;;;;;0.60;0.60;;;8.40;99.90;10.50;102509.00;;;;5080487;28;20277;-77
2024/01/25 11:24:22;;;;;;;0.30;0.30;;;8.50;99.90;10.30;102498.00;;;;5103254;28;20532;-76
2024/01/25 11:26:51;;;;;;;5.47;2.67;;;8.50;99.90;11.00;102507.00;;;;5110096;28;20234;-76
2024/01/25 11:29:20;;;;;;;1.43;1.33;;;8.60;99.90;11.00;102493.00;;;;5095259;28;20235;-77
2024/01/25 11:31:50;;;;;;;1.83;1.73;;;8.90;99.90;10.80;102474.00;;;;5087996;28;20280;-76
2024/01/25 11:34:20;;;;;;;1.80;1.43;;;8.90;99.90;10.80;102477.00;;;;5091531;28;20575;-76
2024/01/25 11:36:46;;;;;;;0.30;0.30;;;8.90;99.90;11.60;102477.00;;;;5091948;28;20181;-76
2024/01/25 11:39:15;;;;;;;1.30;1.20;;;9.10;99.90;11.20;102461.00;;;;5088487;28;20182;-76
2024/01/25 11:41:45;;;;;;;1.50;1.23;;;9.20;99.90;10.70;102470.00;;;;5108385;28;20187;-76
2024/01/25 11:44:12;;;;;;;3.90;3.50;;;9.10;99.90;11.00;102481.00;;;;5081463;28;20191;-76
2024/01/25 11:46:38;;;;;;;0.30;0.30;;;9.10;99.90;10.60;102481.00;;;;5078021;28;20737;-76
2024/01/25 11:49:04;;;;;;;2.40;2.30;;;8.90;99.90;11.70;102459.00;;;;5076342;28;20185;-76
2024/01/25 11:51:30;;;;;;;2.83;0.50;;;9.20;99.90;11.30;102461.00;;;;5096169;28;20209;-76
2024/01/25 11:54:00;;;;;;;0.30;0.30;;;9.20;99.90;11.60;102467.00;;;;5074523;28;20179;-76
2024/01/25 11:56:38;;;;;;;0.30;0.30;;;9.30;99.90;11.20;102454.00;;;;5077677;28;20651;-76
2024/01/25 11:59:04;;;;;;;1.23;1.23;;;9.40;99.90;10.70;102443.00;;;;5077426;28;20187;-76
2024/01/25 12:01:31;;;;;;;0.30;0.30;;;9.20;99.90;11.00;102449.00;;;;5077289;28;20189;-76
2024/01/25 12:03:56;;;;;;;0.83;0.50;;;9.20;99.90;11.80;102436.00;;;;5067721;28;20548;-76
2024/01/25 12:06:27;;;;;;;1.50;1.40;;;9.50;99.90;11.80;102453.00;;;;5071898;28;20172;-76
2024/01/25 12:08:55;;;;;;;0.80;0.80;;;9.60;99.90;12.10;102444.00;;;;5059503;28;20268;-76
2024/01/25 12:11:22;;;;;;;0.30;0.30;;;9.70;99.90;11.80;102448.00;;;;5095290;28;20200;-76
2024/01/25 12:13:48;;;;;;;0.60;0.60;;;9.60;99.90;11.70;102423.00;;;;5091738;28;20577;-75
2024/01/25 12:16:14;;;;;;;0.20;0.20;;;9.80;99.90;11.80;102442.00;;;;5077430;28;20192;-76
2024/01/25 12:18:44;;;;;;;2.30;1.50;;;9.70;99.90;11.90;102420.00;;;;5056839;28;20180;-76
2024/01/25 12:21:10;;;;;;;1.80;1.47;;;9.80;99.90;11.90;102410.00;;;;5071694;28;20189;-76
2024/01/25 12:23:39;;;;;;;1.63;1.53;;;9.90;99.90;12.10;102400.00;;;;5093248;28;20636;-76
2024/01/25 12:26:10;;;;;;;0.80;0.70;;;9.90;99.90;12.00;102417.00;;;;5077070;28;20188;-76
2024/01/25 12:28:41;;;;;;;0.40;0.40;;;10.00;99.90;12.00;102403.00;;;;5073787;28;20193;-76
2024/01/25 12:31:08;;;;;;;0.60;0.60;;;10.00;99.90;12.20;102397.00;;;;5073055;28;20239;-76
2024/01/25 12:33:35;;;;;;;0.50;0.43;;;10.10;99.90;12.10;102392.00;;;;5073588;28;20207;-76
2024/01/25 12:36:03;;;;;;;5.03;4.53;;;10.20;99.90;11.40;102386.00;;;;5074712;28;20185;-77
2024/01/25 12:38:31;;;;;;;0.80;0.80;;;9.90;99.90;12.20;102364.00;;;;5077231;28;20232;-77
2024/01/25 12:40:57;;;;;;;0.30;0.30;;;10.00;99.90;12.10;102373.00;;;;5073427;28;20178;-76
2024/01/25 12:43:23;;;;;;;2.40;2.30;;;10.00;99.90;12.20;102369.00;;;;5075674;28;20195;-76
2024/01/25 12:45:50;;;;;;;0.73;0.73;;;10.20;99.90;11.80;102381.00;;;;5056852;28;20212;-76
2024/01/25 12:48:19;;;;;;;1.50;0.73;;;10.10;99.90;12.00;102381.00;;;;5065530;28;20185;-76
2024/01/25 12:50:45;;;;;;;0.50;0.50;;;10.10;99.90;12.40;102376.00;;;;5093922;28;20216;-76
2024/01/25 12:53:12;;;;;;;5.90;1.03;;;10.20;99.90;13.10;102351.00;;;;5074006;28;20216;-77
2024/01/25 12:55:41;;;;;;;0.30;0.30;;;10.50;99.90;13.30;102329.00;;;;5058750;28;20189;-77
2024/01/25 12:58:07;;;;;;;1.03;0.97;;;10.70;99.90;11.80;102347.00;;;;5066316;28;20191;-77
2024/01/25 13:00:33;;;;;;;0.30;0.30;;;10.20;99.90;12.30;102339.00;;;;5076515;28;20195;-77
2024/01/25 13:03:03;;;;;;;0.30;0.30;;;10.30;99.90;12.70;102346.00;;;;5094883;28;20193;-77
2024/01/25 13:05:33;;;;;;;2.03;1.97;;;10.40;99.90;12.50;102332.00;;;;5094686;28;20544;-77
2024/01/25 13:08:02;;;;;;;0.40;0.40;;;10.40;99.90;12.80;102332.00;;;;5060273;28;20193;-76
2024/01/25 13:10:28;;;;;;;1.67;1.47;;;10.50;99.90;12.20;102320.00;;;;5059580;28;20189;-76
2024/01/25 13:12:56;;;;;;;2.23;1.17;;;10.40;99.90;12.80;102332.00;;;;5072788;28;20213;-77
2024/01/25 13:15:23;;;;;;;0.30;0.30;;;10.50;99.90;12.80;102315.00;;;;5072540;28;20237;-77
2024/01/25 13:17:49;;;;;;;0.30;0.30;;;10.50;99.90;12.80;102308.00;;;;5094248;28;20185;-77
2024/01/25 13:20:15;;;;;;;0.50;0.50;;;10.60;99.90;12.40;102306.00;;;;5076138;28;20199;-76
2024/01/25 13:22:44;;;;;;;0.30;0.30;;;10.40;99.90;11.90;102265.00;;;;5072392;28;20191;-77
2024/01/25 13:25:11;;;;;;;0.30;0.30;;;10.20;99.90;12.70;102308.00;;;;5069469;28;20707;-77
2024/01/25 13:27:40;;;;;;;1.00;0.93;;;10.40;99.90;11.90;102280.00;;;;5094129;28;20184;-76
2024/01/25 13:30:11;;;;;;;0.80;0.80;;;10.30;99.90;12.90;102273.00;;;;5070713;28;20196;-76
2024/01/25 13:32:40;;;;;;;0.73;0.73;;;10.50;99.90;12.90;102313.00;;;;5093721;28;20216;-76
2024/01/25 13:35:07;;;;;;;0.30;0.30;;;10.60;99.90;12.70;102303.00;;;;5076151;28;20190;-76
2024/01/25 13:37:35;;;;;;;0.60;0.60;;;10.60;99.90;12.80;102288.00;;;;5059224;28;20208;-76
2024/01/25 13:40:03;;;;;;;0.27;0.27;;;10.70;99.90;13.10;102267.00;;;;5084577;28;20187;-76
2024/01/25 13:42:30;;;;;;;0.30;0.30;;;10.70;99.90;12.60;102218.00;;;;5058547;28;20194;-76
2024/01/25 13:44:56;;;;;;;0.50;0.50;;;10.70;99.90;13.10;102281.00;;;;5071966;28;20189;-76
2024/01/25 13:47:24;;;;;;;1.17;1.10;;;10.80;99.90;13.50;102234.00;;;;5069255;28;20189;-76
2024/01/25 13:49:50;;;;;;;0.50;0.50;;;10.90;99.90;13.60;102279.00;;;;5093518;28;20181;-77
2024/01/25 13:52:22;;;;;;;2.63;2.43;;;11.10;99.90;12.90;102266.00;;;;5074993;28;20192;-77
2024/01/25 13:54:51;;;;;;;2.27;1.70;;;10.90;99.90;13.00;102273.00;;;;5089129;28;20329;-76
2024/01/25 13:57:20;;;;;;;0.80;0.80;;;10.90;99.90;12.90;102272.00;;;;5067853;28;20233;-77
2024/01/25 13:59:46;;;;;;;1.40;0.87;;;10.80;99.90;12.40;102273.00;;;;5093462;28;20269;-76
2024/01/25 14:02:12;;;;;;;1.17;0.80;;;10.60;99.90;12.90;102267.00;;;;5075067;28;20229;-76
2024/01/25 14:04:38;;;;;;;2.90;2.63;;;10.70;99.90;13.10;102257.00;;;;5093117;28;20193;-77
2024/01/25 14:07:07;;;;;;;0.50;0.50;;;10.80;99.90;12.70;102259.00;;;;5057627;28;20274;-77
2024/01/25 14:09:33;;;;;;;0.30;0.30;;;10.80;99.90;13.20;102264.00;;;;5048581;28;20239;-76
2024/01/25 14:12:00;;;;;;;0.80;0.80;;;10.80;99.90;12.90;102273.00;;;;5075164;28;20656;-76
2024/01/25 14:14:28;;;;;;;0.30;0.30;;;10.80;99.90;13.30;102285.00;;;;5072291;28;20199;-76
2024/01/25 14:16:54;;;;;;;2.27;1.23;;;10.90;99.90;13.50;102280.00;;;;5090173;28;20539;-76
2024/01/25 14:19:20;;;;;;;0.30;0.30;;;11.00;99.90;13.00;102281.00;;;;5075093;28;20193;-76
2024/01/25 14:21:50;;;;;;;0.70;0.70;;;10.90;99.90;12.90;102267.00;;;;5071894;28;20211;-76
2024/01/25 14:24:16;;;;;;;5.93;0.83;;;10.90;99.90;13.30;102240.00;;;;5093282;28;20187;-76
2024/01/25 14:26:45;;;;;;;0.40;0.40;;;10.90;99.90;13.60;102272.00;;;;5093179;28;20180;-76
2024/01/25 14:29:13;;;;;;;0.30;0.30;;;11.10;99.90;13.40;102273.00;;;;5058432;28;20222;-77
2024/01/25 14:31:39;;;;;;;1.13;1.13;;;11.10;99.90;13.20;102270.00;;;;5063474;28;20624;-78
2024/01/25 14:34:07;;;;;;;0.30;0.30;;;11.10;99.90;14.00;102263.00;;;;5070010;28;20226;-78
2024/01/25 14:36:33;;;;;;;0.30;0.30;;;11.30;99.90;14.70;102265.00;;;;5073711;28;20232;-77
2024/01/25 14:39:06;;;;;;;0.87;0.70;;;11.60;99.90;14.80;102228.00;;;;5091895;28;20183;-77
2024/01/25 14:41:38;;;;;;;0.40;0.40;;;11.90;99.90;14.10;102250.00;;;;5056637;28;20187;-77
2024/01/25 14:44:04;;;;;;;1.17;1.07;;;11.50;99.90;13.20;102246.00;;;;5070884;28;20578;-77
2024/01/25 14:46:30;;;;;;;0.80;0.60;;;11.40;99.90;13.00;102256.00;;;;5092583;28;20196;-77
2024/01/25 14:48:57;;;;;;;0.33;0.33;;;11.20;99.90;13.30;102253.00;;;;5071580;28;20191;-77
2024/01/25 14:51:26;;;;;;;0.30;0.30;;;11.10;99.90;13.70;102221.00;;;;5061886;28;20211;-77
2024/01/25 14:53:55;;;;;;;0.40;0.40;;;11.30;99.90;13.70;102256.00;;;;5088655;28;20194;-77
2024/01/25 14:56:21;;;;;;;0.67;0.67;;;11.30;99.90;14.30;102251.00;;;;5072079;28;20194;-77
2024/01/25 14:58:48;;;;;;;0.30;0.30;;;11.60;99.90;14.60;102251.00;;;;5092750;28;20181;-77
2024/01/25 15:01:18;;;;;;;0.30;0.30;;;11.70;99.90;14.70;102226.00;;;;5092156;28;20275;-77
2024/01/25 15:03:48;;;;;;;2.07;1.50;;;11.90;99.90;13.10;102186.00;;;;5066701;28;20544;-77
2024/01/25 15:06:14;;;;;;;0.90;0.90;;;11.50;99.90;13.20;102191.00;;;;5091870;28;20226;-77
2024/01/25 15:08:40;;;;;;;0.30;0.30;;;11.40;99.90;13.40;102258.00;;;;5092625;28;20678;-77
2024/01/25 15:11:06;;;;;;;0.50;0.50;;;11.30;99.90;13.90;102199.00;;;;5090417;28;20639;-77
2024/01/25 15:13:33;;;;;;;0.40;0.40;;;11.40;99.90;14.50;102241.00;;;;5071194;28;20204;-77
2024/01/25 15:15:59;;;;;;;1.03;0.93;;;11.60;99.90;14.10;102240.00;;;;5071572;28;20277;-77
2024/01/25 15:18:25;;;;;;;3.13;3.03;;;11.70;99.90;13.60;102193.00;;;;5075533;28;20265;-77
2024/01/25 15:20:53;;;;;;;1.83;1.73;;;11.60;99.90;13.50;102220.00;;;;5077852;28;20691;-76
2024/01/25 15:23:22;;;;;;;1.07;1.07;;;11.50;99.90;13.60;102233.00;;;;5074807;28;20201;-77
2024/01/25 15:25:49;;;;;;;0.40;0.40;;;11.40;99.90;13.40;102249.00;;;;5074469;28;20185;-77
2024/01/25 15:28:16;;;;;;;0.30;0.30;;;11.30;99.90;13.40;102247.00;;;;5086375;28;20190;-77
2024/01/25 15:30:42;;;;;;;0.37;0.37;;;11.30;99.90;12.90;102240.00;;;;5078001;28;20186;-77
2024/01/25 15:33:11;;;;;;;1.27;1.17;;;11.20;99.90;13.10;102233.00;;;;5096735;28;20214;-77
2024/01/25 15:35:40;;;;;;;3.07;2.00;;;11.10;99.90;13.00;102189.00;;;;5078135;28;20183;-78
2024/01/25 15:38:07;;;;;;;0.30;0.30;;;11.10;99.90;13.20;102228.00;;;;5074962;28;20194;-77
2024/01/25 15:40:34;;;;;;;1.03;1.03;;;11.10;99.90;13.30;102243.00;;;;5076721;28;20640;-77
2024/01/25 15:43:00;;;;;;;0.30;0.30;;;11.10;99.90;13.50;102245.00;;;;5076248;28;20244;-77
2024/01/25 15:45:26;;;;;;;1.50;1.50;;;11.20;99.90;13.70;102187.00;;;;5071051;28;20270;-77
2024/01/25 15:47:58;;;;;;;0.57;0.50;;;11.30;99.90;13.80;102175.00;;;;5075660;28;20274;-78
2024/01/25 15:50:24;;;;;;;0.43;0.43;;;11.40;99.90;13.50;102232.00;;;;5084957;28;20185;-78
2024/01/25 15:53:17;;;;;;;;;;;;;;;;;;;;;
2024/01/25 15:55:58;;;;;;;1.73;1.63;;;11.30;99.90;13.90;102211.00;;;;5091339;28;20195;-78
2024/01/25 15:58:24;;;;;;;0.30;0.30;;;11.30;99.90;14.10;102219.00;;;;5084799;28;20205;-78
2024/01/25 16:00:50;;;;;;;0.30;0.30;;;11.40;99.90;14.40;102225.00;;;;5085929;28;20185;-77
2024/01/25 16:03:15;;;;;;;0.50;0.50;;;11.60;99.90;14.40;102211.00;;;;5086386;28;20570;-78
2024/01/25 16:05:42;;;;;;;0.30;0.30;;;11.70;99.90;14.30;102212.00;;;;5085294;28;20184;-78
2024/01/25 16:08:08;;;;;;;0.40;0.40;;;11.80;99.90;14.20;102194.00;;;;5085168;28;20539;-77
2024/01/25 16:10:34;;;;;;;1.10;1.00;;;11.80;99.90;13.80;102209.00;;;;5102338;28;20213;-77
2024/01/25 16:13:00;;;;;;;0.53;0.53;;;11.60;99.90;14.30;102196.00;;;;5083981;28;20222;-78
2024/01/25 16:15:27;;;;;;;0.40;0.40;;;11.80;99.90;14.10;102206.00;;;;5084787;28;20188;-78
2024/01/25 16:17:54;;;;;;;0.73;0.73;;;11.70;99.90;13.70;102210.00;;;;5085157;28;20262;-77
2024/01/25 16:20:21;;;;;;;0.30;0.30;;;11.60;99.90;13.20;102220.00;;;;5103723;28;20190;-78
2024/01/25 16:22:50;;;;;;;0.33;0.33;;;11.40;99.90;13.20;102176.00;;;;5069314;28;20237;-78
2024/01/25 16:25:22;;;;;;;0.33;0.33;;;11.30;99.90;13.70;102210.00;;;;5084770;28;20249;-78
2024/01/25 16:27:48;;;;;;;0.47;0.47;;;11.30;99.90;13.70;102206.00;;;;5084949;28;20303;-78
2024/01/25 16:30:18;;;;;;;3.37;2.40;;;11.40;99.90;13.70;102207.00;;;;5101997;28;20187;-78
2024/01/25 16:32:46;;;;;;;0.30;0.30;;;11.50;99.90;13.70;102215.00;;;;5086136;28;20551;-78
2024/01/25 16:35:12;;;;;;;0.30;0.30;;;11.40;99.90;13.90;102218.00;;;;5084868;28;20195;-78
2024/01/25 16:37:38;;;;;;;1.33;1.17;;;11.40;99.90;13.70;102197.00;;;;5099669;28;20193;-78
2024/01/25 16:40:05;;;;;;;3.33;2.40;;;11.40;99.90;13.20;102208.00;;;;5084951;28;20202;-78
2024/01/25 16:42:31;;;;;;;0.93;0.93;;;11.30;99.90;13.60;102154.00;;;;5085962;28;20196;-78
2024/01/25 16:44:57;;;;;;;1.43;1.33;;;11.30;99.90;13.30;102205.00;;;;5101334;28;20239;-78
2024/01/25 16:47:26;;;;;;;1.07;0.67;;;11.30;99.90;13.30;102206.00;;;;5068331;28;20204;-77
2024/01/25 16:49:58;;;;;;;0.20;0.20;;;11.20;99.90;13.50;102217.00;;;;5100795;28;20537;-77
2024/01/25 16:52:30;;;;;;;2.73;1.13;;;11.20;99.90;14.10;102190.00;;;;5085249;28;20196;-77
2024/01/25 16:54:56;;;;;;;1.70;1.60;;;11.50;99.90;13.80;102198.00;;;;5102908;28;20218;-77
2024/01/25 16:57:27;;;;;;;0.93;0.93;;;11.40;99.90;13.90;102162.00;;;;5084663;28;20651;-77
2024/01/25 16:59:54;;;;;;;0.30;0.30;;;11.40;99.90;14.00;102186.00;;;;5084686;28;20627;-77
2024/01/25 17:02:20;;;;;;;1.27;1.23;;;11.60;99.90;13.10;102183.00;;;;5074267;28;20200;-77
2024/01/25 17:04:46;;;;;;;0.77;0.77;;;11.30;99.90;13.30;102149.00;;;;5083655;28;20209;-78
2024/01/25 17:07:13;;;;;;;1.13;0.77;;;11.30;99.90;13.50;102195.00;;;;5091390;28;20215;-77
2024/01/25 17:09:39;;;;;;;0.40;0.40;;;11.30;99.90;13.40;102192.00;;;;5102558;28;20254;-77
2024/01/25 17:12:05;;;;;;;0.20;0.20;;;11.30;99.90;13.90;102187.00;;;;5082760;28;20601;-77
2024/01/25 17:14:37;;;;;;;0.73;0.73;;;11.40;99.90;13.60;102187.00;;;;5084198;28;20194;-76
2024/01/25 17:17:04;;;;;;;1.17;1.07;;;11.40;99.90;13.50;102191.00;;;;5084811;28;20182;-76
2024/01/25 17:19:30;;;;;;;0.80;0.80;;;11.40;99.90;13.20;102189.00;;;;5102435;28;21031;-76
2024/01/25 17:21:56;;;;;;;1.03;1.03;;;11.20;99.90;13.40;102176.00;;;;5083914;28;20201;-77
2024/01/25 17:24:22;;;;;;;0.20;0.20;;;11.20;99.90;13.40;102193.00;;;;5102725;28;20188;-77
2024/01/25 17:26:50;;;;;;;0.47;0.47;;;11.20;99.90;13.40;102142.00;;;;5102715;28;20192;-77
2024/01/25 17:29:16;;;;;;;0.40;0.40;;;11.20;99.90;13.20;102145.00;;;;5067719;28;20185;-77
2024/01/25 17:31:44;;;;;;;1.07;1.07;;;11.20;99.90;13.30;102192.00;;;;5081494;28;20228;-77
2024/01/25 17:34:13;;;;;;;0.83;0.83;;;11.10;99.90;13.30;102183.00;;;;5066333;28;20183;-77
2024/01/25 17:36:43;;;;;;;0.40;0.40;;;11.10;99.90;13.30;102163.00;;;;5067497;28;20187;-77
2024/01/25 17:39:10;;;;;;;0.40;0.40;;;11.10;99.90;13.30;102184.00;;;;5083360;28;20199;-77
2024/01/25 17:41:36;;;;;;;1.63;1.53;;;11.10;99.90;13.00;102178.00;;;;5067416;28;20530;-77
2024/01/25 17:44:03;;;;;;;0.97;0.97;;;11.10;99.90;12.80;102184.00;;;;5083289;28;20203;-76
2024/01/25 17:46:29;;;;;;;1.30;1.20;;;11.00;99.90;13.20;102135.00;;;;5101241;28;20186;-77
2024/01/25 17:48:55;;;;;;;0.77;0.77;;;11.10;99.90;13.40;102194.00;;;;5084722;28;20662;-77
2024/01/25 17:51:23;;;;;;;0.73;0.73;;;11.00;99.90;13.50;102170.00;;;;5083145;28;20244;-77
2024/01/25 17:53:51;;;;;;;0.70;0.50;;;11.10;99.90;13.70;102163.00;;;;5082321;28;20289;-77
2024/01/25 17:56:20;;;;;;;0.60;0.60;;;11.20;99.90;13.30;102146.00;;;;5102318;28;20216;-77
2024/01/25 17:58:49;;;;;;;1.43;1.33;;;11.10;99.90;13.60;102185.00;;;;5082726;28;20186;-78
2024/01/25 18:01:16;;;;;;;0.93;0.93;;;11.20;99.90;13.00;102183.00;;;;5084014;28;20180;-77
2024/01/25 18:03:42;;;;;;;1.20;1.10;;;11.10;99.90;13.60;102180.00;;;;5083471;28;20276;-77
2024/01/25 18:06:08;;;;;;;2.13;2.03;;;11.20;99.90;13.00;102132.00;;;;5082460;28;20176;-77
2024/01/25 18:08:35;;;;;;;1.93;1.70;;;11.10;99.90;13.10;102187.00;;;;5083675;28;20198;-77
2024/01/25 18:11:03;;;;;;;2.90;2.40;;;11.20;99.90;12.80;102189.00;;;;5083672;28;20260;-77
2024/01/25 18:13:32;;;;;;;2.03;1.47;;;11.10;99.90;13.00;102185.00;;;;5074079;28;20300;-77
2024/01/25 18:15:58;;;;;;;5.53;2.10;;;11.10;99.90;12.90;102181.00;;;;5083251;28;20190;-77
2024/01/25 18:18:27;;;;;;;2.50;2.30;;;11.00;99.90;12.70;102190.00;;;;5100004;28;20185;-77
2024/01/25 18:20:55;;;;;;;1.23;1.13;;;11.00;99.90;12.80;102143.00;;;;5082487;28;20227;-77
2024/01/25 18:23:21;;;;;;;1.87;1.50;;;11.00;99.90;13.00;102167.00;;;;5081127;28;20188;-78
2024/01/25 18:25:54;;;;;;;1.17;1.13;;;11.10;99.90;13.30;102185.00;;;;5078124;28;20265;-77
2024/01/25 18:28:30;;;;;;;0.67;0.67;;;11.10;99.90;13.20;102188.00;;;;5080857;28;20554;-77
2024/01/25 18:31:02;;;;;;;0.80;0.80;;;11.10;99.90;13.30;102179.00;;;;5054606;28;20185;-77
2024/01/25 18:33:28;;;;;;;2.63;2.43;;;11.20;99.90;13.60;102147.00;;;;5073610;28;20214;-77
2024/01/25 18:36:00;;;;;;;1.67;0.93;;;11.40;99.90;13.50;102171.00;;;;5057505;28;20190;-77
2024/01/25 18:38:26;;;;;;;0.30;0.30;;;11.30;99.90;13.50;102166.00;;;;5057919;28;20179;-77
2024/01/25 18:40:52;;;;;;;0.83;0.83;;;11.30;99.90;13.40;102117.00;;;;5074655;28;20255;-77